sensor_id;sensor_type;location;lat;lon;timestamp;pressure;altitude;pressure_sealevel;temperature;humidity
6389;BME280;3227;42.654;23.360;2022-08-21T00:00:43;93941.09;;;20.41;100.00
6389;BME280;3227;42.654;23.360;2022-08-21T00:03:11;93931.28;;;20.46;100.00
6389;BME280;3227;42.654;23.360;2022-08-21T00:05:49;93933.59;;;20.52;100.00
6389;BME280;3227;42.654;23.360;2022-08-21T00:08:17;93921.97;;;20.60;100.00
6389;BME280;3227;42.654;23.360;2022-08-21T00:10:44;93928.34;;;20.71;100.00
6389;BME280;3227;42.654;23.360;2022-08-21T00:13:11;93913.72;;;20.86;100.00
6389;BME280;3227;42.654;23.360;2022-08-21T00:15:58;93907.09;;;20.98;100.00
6389;BME280;3227;42.654;23.360;2022-08-21T00:18:26;93909.16;;;21.08;100.00
6389;BME280;3227;42.654;23.360;2022-08-21T00:20:54;93910.53;;;21.15;100.00
6389;BME280;3227;42.654;23.360;2022-08-21T00:23:21;93888.84;;;21.15;100.00
6389;BME280;3227;42.654;23.360;2022-08-21T00:25:48;93905.34;;;21.33;100.00
6389;BME280;3227;42.654;23.360;2022-08-21T00:28:15;93908.00;;;21.31;99.35
6389;BME280;3227;42.654;23.360;2022-08-21T00:30:42;93781.41;;;20.60;99.67
6389;BME280;3227;42.654;23.360;2022-08-21T00:33:10;93899.09;;;21.35;99.60
6389;BME280;3227;42.654;23.360;2022-08-21T00:35:40;93897.13;;;21.40;99.55
6389;BME280;3227;42.654;23.360;2022-08-21T00:38:09;93897.78;;;21.44;97.43
6389;BME280;3227;42.654;23.360;2022-08-21T00:40:39;93900.47;;;21.42;98.45
6389;BME280;3227;42.654;23.360;2022-08-21T00:43:08;93902.16;;;21.43;98.31
6389;BME280;3227;42.654;23.360;2022-08-21T00:45:35;93902.09;;;21.45;97.51
6389;BME280;3227;42.654;23.360;2022-08-21T00:48:03;93900.13;;;21.33;97.15
6389;BME280;3227;42.654;23.360;2022-08-21T00:50:32;93913.59;;;21.41;96.94
6389;BME280;3227;42.654;23.360;2022-08-21T00:53:00;93921.09;;;21.47;97.23
6389;BME280;3227;42.654;23.360;2022-08-21T00:55:31;93910.59;;;21.48;96.84
6389;BME280;3227;42.654;23.360;2022-08-21T00:57:59;93911.25;;;21.52;98.20
6389;BME280;3227;42.654;23.360;2022-08-21T01:00:29;93900.25;;;21.47;98.17
6389;BME280;3227;42.654;23.360;2022-08-21T01:02:57;93886.31;;;21.31;98.10
6389;BME280;3227;42.654;23.360;2022-08-21T01:05:25;93894.25;;;21.45;99.16
6389;BME280;3227;42.654;23.360;2022-08-21T01:07:53;93887.38;;;21.44;99.08
6389;BME280;3227;42.654;23.360;2022-08-21T01:10:22;93848.78;;;21.17;98.85
6389;BME280;3227;42.654;23.360;2022-08-21T01:12:52;93886.69;;;21.40;99.22
6389;BME280;3227;42.654;23.360;2022-08-21T01:15:22;93842.16;;;21.10;99.01
6389;BME280;3227;42.654;23.360;2022-08-21T01:17:50;93887.75;;;21.36;99.13
6389;BME280;3227;42.654;23.360;2022-08-21T01:20:17;93888.75;;;21.34;99.73
6389;BME280;3227;42.654;23.360;2022-08-21T01:22:45;93879.28;;;21.33;100.00
6389;BME280;3227;42.654;23.360;2022-08-21T01:25:15;93877.97;;;21.41;100.00
6389;BME280;3227;42.654;23.360;2022-08-21T01:27:42;93877.97;;;21.41;100.00
6389;BME280;3227;42.654;23.360;2022-08-21T01:30:11;93862.94;;;21.29;100.00
6389;BME280;3227;42.654;23.360;2022-08-21T01:32:40;93877.38;;;21.52;99.79
6389;BME280;3227;42.654;23.360;2022-08-21T01:35:08;93875.69;;;21.51;99.73
6389;BME280;3227;42.654;23.360;2022-08-21T01:37:37;93886.22;;;21.49;99.83
6389;BME280;3227;42.654;23.360;2022-08-21T01:40:06;93884.75;;;21.44;99.24
6389;BME280;3227;42.654;23.360;2022-08-21T01:42:33;93889.97;;;21.44;99.52
6389;BME280;3227;42.654;23.360;2022-08-21T01:45:00;93883.84;;;21.45;98.89
6389;BME280;3227;42.654;23.360;2022-08-21T01:47:27;93880.25;;;21.47;98.61
6389;BME280;3227;42.654;23.360;2022-08-21T01:49:53;93876.94;;;21.44;98.85
6389;BME280;3227;42.654;23.360;2022-08-21T01:52:20;93889.63;;;21.50;98.57
6389;BME280;3227;42.654;23.360;2022-08-21T01:54:47;93888.81;;;21.49;99.38
6389;BME280;3227;42.654;23.360;2022-08-21T01:57:16;93887.22;;;21.47;99.98
6389;BME280;3227;42.654;23.360;2022-08-21T01:59:43;93882.31;;;21.41;100.00
6389;BME280;3227;42.654;23.360;2022-08-21T02:02:10;93895.19;;;21.44;99.71
6389;BME280;3227;42.654;23.360;2022-08-21T02:04:36;93892.34;;;21.48;100.00
6389;BME280;3227;42.654;23.360;2022-08-21T02:07:03;93890.72;;;21.46;99.01
6389;BME280;3227;42.654;23.360;2022-08-21T02:09:30;93894.50;;;21.40;98.22
6389;BME280;3227;42.654;23.360;2022-08-21T02:11:57;93903.06;;;21.42;98.46
6389;BME280;3227;42.654;23.360;2022-08-21T02:14:26;93896.94;;;21.43;98.12
6389;BME280;3227;42.654;23.360;2022-08-21T02:16:53;93904.09;;;21.40;98.85
6389;BME280;3227;42.654;23.360;2022-08-21T02:19:19;93901.56;;;21.38;98.18
6389;BME280;3227;42.654;23.360;2022-08-21T02:21:46;93898.88;;;21.40;99.22
6389;BME280;3227;42.654;23.360;2022-08-21T02:24:13;93905.59;;;21.44;98.81
6389;BME280;3227;42.654;23.360;2022-08-21T02:26:40;93898.03;;;21.39;97.80
6389;BME280;3227;42.654;23.360;2022-08-21T02:29:06;93911.16;;;21.38;98.84
6389;BME280;3227;42.654;23.360;2022-08-21T02:31:34;93917.13;;;21.40;99.27
6389;BME280;3227;42.654;23.360;2022-08-21T02:34:01;93912.84;;;21.39;99.45
6389;BME280;3227;42.654;23.360;2022-08-21T02:36:28;93906.16;;;21.33;98.46
6389;BME280;3227;42.654;23.360;2022-08-21T02:38:55;93909.00;;;21.29;99.08
6389;BME280;3227;42.654;23.360;2022-08-21T02:41:22;93910.38;;;21.18;100.00
6389;BME280;3227;42.654;23.360;2022-08-21T02:43:49;93914.81;;;21.16;100.00
6389;BME280;3227;42.654;23.360;2022-08-21T02:46:18;93900.75;;;21.20;100.00
6389;BME280;3227;42.654;23.360;2022-08-21T02:48:46;93899.06;;;21.19;100.00
6389;BME280;3227;42.654;23.360;2022-08-21T02:51:15;93855.59;;;21.03;100.00
6389;BME280;3227;42.654;23.360;2022-08-21T02:53:43;93901.19;;;21.29;99.79
6389;BME280;3227;42.654;23.360;2022-08-21T02:56:14;93905.63;;;21.26;100.00
6389;BME280;3227;42.654;23.360;2022-08-21T02:58:44;93909.91;;;21.27;100.00
6389;BME280;3227;42.654;23.360;2022-08-21T03:01:12;93910.75;;;21.28;100.00
6389;BME280;3227;42.654;23.360;2022-08-21T03:03:41;93880.56;;;21.07;100.00
6389;BME280;3227;42.654;23.360;2022-08-21T03:06:11;93909.84;;;21.29;100.00
6389;BME280;3227;42.654;23.360;2022-08-21T03:08:38;93917.59;;;21.31;100.00
6389;BME280;3227;42.654;23.360;2022-08-21T03:11:06;93911.47;;;21.32;100.00
6389;BME280;3227;42.654;23.360;2022-08-21T03:13:33;93908.94;;;21.30;99.49
6389;BME280;3227;42.654;23.360;2022-08-21T03:16:00;93903.66;;;21.32;99.74
6389;BME280;3227;42.654;23.360;2022-08-21T03:18:27;93900.13;;;21.33;99.12
6389;BME280;3227;42.654;23.360;2022-08-21T03:20:53;93897.53;;;21.33;98.60
6389;BME280;3227;42.654;23.360;2022-08-21T03:23:22;93898.44;;;21.32;98.00
6389;BME280;3227;42.654;23.360;2022-08-21T03:25:54;93883.09;;;21.08;98.18
6389;BME280;3227;42.654;23.360;2022-08-21T03:28:21;93910.25;;;21.21;97.94
6389;BME280;3227;42.654;23.360;2022-08-21T03:30:50;93906.38;;;21.11;98.13
6389;BME280;3227;42.654;23.360;2022-08-21T03:33:17;93901.03;;;21.14;98.34
6389;BME280;3227;42.654;23.360;2022-08-21T03:35:48;93889.06;;;21.10;98.47
6389;BME280;3227;42.654;23.360;2022-08-21T03:38:15;93901.50;;;21.22;98.26
6389;BME280;3227;42.654;23.360;2022-08-21T03:40:44;93904.25;;;21.19;98.21
6389;BME280;3227;42.654;23.360;2022-08-21T03:43:11;93904.63;;;21.12;97.66
6389;BME280;3227;42.654;23.360;2022-08-21T03:45:38;93906.00;;;21.02;97.28
6389;BME280;3227;42.654;23.360;2022-08-21T03:48:06;93887.00;;;20.65;96.41
6389;BME280;3227;42.654;23.360;2022-08-21T03:50:37;93909.28;;;20.71;97.64
6389;BME280;3227;42.654;23.360;2022-08-21T03:53:05;93910.09;;;20.54;97.79
6389;BME280;3227;42.654;23.360;2022-08-21T03:55:32;93905.41;;;20.43;99.04
6389;BME280;3227;42.654;23.360;2022-08-21T03:58:00;93924.75;;;20.38;98.57
6389;BME280;3227;42.654;23.360;2022-08-21T04:00:28;93926.66;;;20.34;100.00
6389;BME280;3227;42.654;23.360;2022-08-21T04:02:55;93923.91;;;20.37;100.00
6389;BME280;3227;42.654;23.360;2022-08-21T04:05:22;93919.63;;;20.36;100.00
6389;BME280;3227;42.654;23.360;2022-08-21T04:07:55;93923.84;;;20.39;100.00
6389;BME280;3227;42.654;23.360;2022-08-21T04:10:22;93934.94;;;20.42;100.00
6389;BME280;3227;42.654;23.360;2022-08-21T04:12:50;93928.13;;;20.40;100.00
6389;BME280;3227;42.654;23.360;2022-08-21T04:15:19;93922.22;;;20.36;100.00
6389;BME280;3227;42.654;23.360;2022-08-21T04:17:46;93922.22;;;20.36;100.00
6389;BME280;3227;42.654;23.360;2022-08-21T04:20:13;93913.72;;;20.33;100.00
6389;BME280;3227;42.654;23.360;2022-08-21T04:22:40;93916.09;;;20.37;100.00
6389;BME280;3227;42.654;23.360;2022-08-21T04:25:08;93923.91;;;20.37;100.00
6389;BME280;3227;42.654;23.360;2022-08-21T04:27:34;93932.06;;;20.48;100.00
6389;BME280;3227;42.654;23.360;2022-08-21T04:30:02;93919.44;;;20.41;100.00
6389;BME280;3227;42.654;23.360;2022-08-21T04:32:30;93931.66;;;20.39;100.00
6389;BME280;3227;42.654;23.360;2022-08-21T04:34:58;93926.50;;;20.37;100.00
6389;BME280;3227;42.654;23.360;2022-08-21T04:37:26;93921.19;;;20.40;100.00
6389;BME280;3227;42.654;23.360;2022-08-21T04:39:53;93918.28;;;20.46;100.00
6389;BME280;3227;42.654;23.360;2022-08-21T04:42:21;93919.66;;;20.54;100.00
6389;BME280;3227;42.654;23.360;2022-08-21T04:44:49;93914.91;;;20.44;100.00
6389;BME280;3227;42.654;23.360;2022-08-21T04:47:16;93917.91;;;20.54;100.00
6389;BME280;3227;42.654;23.360;2022-08-21T04:49:44;93895.47;;;20.51;100.00
6389;BME280;3227;42.654;23.360;2022-08-21T04:52:13;93915.72;;;20.81;100.00
6389;BME280;3227;42.654;23.360;2022-08-21T04:54:44;93905.47;;;21.12;97.13
6389;BME280;3227;42.654;23.360;2022-08-21T04:57:13;93903.41;;;21.36;94.01
6389;BME280;3227;42.654;23.360;2022-08-21T04:59:45;93910.44;;;21.34;93.42
6389;BME280;3227;42.654;23.360;2022-08-21T05:02:14;93904.88;;;21.24;94.51
6389;BME280;3227;42.654;23.360;2022-08-21T05:04:45;93909.09;;;21.60;92.53
6389;BME280;3227;42.654;23.360;2022-08-21T05:07:18;93912.78;;;21.89;90.57
6389;BME280;3227;42.654;23.360;2022-08-21T05:09:46;93912.34;;;22.14;88.17
6389;BME280;3227;42.654;23.360;2022-08-21T05:12:13;93911.53;;;22.59;87.45
6389;BME280;3227;42.654;23.360;2022-08-21T05:14:39;93925.69;;;23.16;84.24
6389;BME280;3227;42.654;23.360;2022-08-21T05:17:07;93918.34;;;23.67;80.38
6389;BME280;3227;42.654;23.360;2022-08-21T05:19:34;93922.91;;;24.20;75.94
6389;BME280;3227;42.654;23.360;2022-08-21T05:22:02;93906.03;;;24.52;74.90
6389;BME280;3227;42.654;23.360;2022-08-21T05:24:29;93920.72;;;24.82;74.36
6389;BME280;3227;42.654;23.360;2022-08-21T05:26:56;93899.91;;;24.66;72.43
6389;BME280;3227;42.654;23.360;2022-08-21T05:29:24;93914.09;;;24.49;73.15
6389;BME280;3227;42.654;23.360;2022-08-21T05:31:51;93926.34;;;24.49;74.18
6389;BME280;3227;42.654;23.360;2022-08-21T05:34:20;93906.53;;;24.31;74.84
6389;BME280;3227;42.654;23.360;2022-08-21T05:36:47;93914.88;;;24.37;75.38
6389;BME280;3227;42.654;23.360;2022-08-21T05:39:15;93919.22;;;24.51;76.27
6389;BME280;3227;42.654;23.360;2022-08-21T05:41:42;93905.31;;;24.77;75.65
6389;BME280;3227;42.654;23.360;2022-08-21T05:44:09;93906.41;;;25.27;72.82
6389;BME280;3227;42.654;23.360;2022-08-21T05:46:39;93907.06;;;25.43;70.91
6389;BME280;3227;42.654;23.360;2022-08-21T05:49:06;93909.69;;;25.43;70.40
6389;BME280;3227;42.654;23.360;2022-08-21T05:51:32;93858.03;;;25.18;69.83
6389;BME280;3227;42.654;23.360;2022-08-21T05:53:59;93904.16;;;25.08;71.28
6389;BME280;3227;42.654;23.360;2022-08-21T05:56:27;93904.44;;;24.91;73.02
6389;BME280;3227;42.654;23.360;2022-08-21T05:58:54;93912.81;;;24.69;73.93
6389;BME280;3227;42.654;23.360;2022-08-21T06:01:22;93899.03;;;24.39;75.34
6389;BME280;3227;42.654;23.360;2022-08-21T06:03:48;93909.66;;;24.23;76.39
6389;BME280;3227;42.654;23.360;2022-08-21T06:06:15;93916.03;;;24.05;78.73
6389;BME280;3227;42.654;23.360;2022-08-21T06:08:43;93914.44;;;23.88;79.87
6389;BME280;3227;42.654;23.360;2022-08-21T06:11:10;93900.03;;;23.81;80.45
6389;BME280;3227;42.654;23.360;2022-08-21T06:13:38;93904.09;;;24.13;79.91
6389;BME280;3227;42.654;23.360;2022-08-21T06:16:08;93904.28;;;24.39;79.22
6389;BME280;3227;42.654;23.360;2022-08-21T06:18:36;93901.78;;;24.64;77.05
6389;BME280;3227;42.654;23.360;2022-08-21T06:21:04;93910.19;;;24.69;75.85
6389;BME280;3227;42.654;23.360;2022-08-21T06:23:31;93894.31;;;24.58;76.58
6389;BME280;3227;42.654;23.360;2022-08-21T06:25:58;93901.19;;;24.73;76.26
6389;BME280;3227;42.654;23.360;2022-08-21T06:28:25;93862.97;;;24.30;76.11
6389;BME280;3227;42.654;23.360;2022-08-21T06:30:53;93897.31;;;24.25;77.25
6389;BME280;3227;42.654;23.360;2022-08-21T06:33:20;93850.41;;;23.65;78.96
6389;BME280;3227;42.654;23.360;2022-08-21T06:35:47;93901.44;;;23.72;78.92
6389;BME280;3227;42.654;23.360;2022-08-21T06:38:14;93910.13;;;23.59;80.12
6389;BME280;3227;42.654;23.360;2022-08-21T06:40:41;93898.56;;;23.63;80.67
6389;BME280;3227;42.654;23.360;2022-08-21T06:43:10;93912.66;;;23.74;79.18
6389;BME280;3227;42.654;23.360;2022-08-21T06:45:37;93909.94;;;23.76;79.24
6389;BME280;3227;42.654;23.360;2022-08-21T06:48:05;93918.22;;;23.97;79.58
6389;BME280;3227;42.654;23.360;2022-08-21T06:50:34;93921.03;;;24.08;78.10
6389;BME280;3227;42.654;23.360;2022-08-21T06:53:02;93925.81;;;24.15;76.81
6389;BME280;3227;42.654;23.360;2022-08-21T06:55:30;93920.50;;;24.03;75.76
6389;BME280;3227;42.654;23.360;2022-08-21T06:57:57;93921.69;;;23.97;76.06
6389;BME280;3227;42.654;23.360;2022-08-21T07:00:24;93907.22;;;24.06;75.76
6389;BME280;3227;42.654;23.360;2022-08-21T07:02:51;93937.34;;;24.27;74.99
6389;BME280;3227;42.654;23.360;2022-08-21T07:05:19;93925.81;;;24.30;75.29
6389;BME280;3227;42.654;23.360;2022-08-21T07:07:46;93897.22;;;23.98;74.47
6389;BME280;3227;42.654;23.360;2022-08-21T07:10:14;93918.16;;;24.12;75.25
6389;BME280;3227;42.654;23.360;2022-08-21T07:12:41;93911.97;;;24.13;76.08
6389;BME280;3227;42.654;23.360;2022-08-21T07:15:09;93918.13;;;24.41;76.74
6389;BME280;3227;42.654;23.360;2022-08-21T07:17:36;93923.03;;;24.59;76.24
6389;BME280;3227;42.654;23.360;2022-08-21T07:20:04;93914.88;;;24.64;76.37
6389;BME280;3227;42.654;23.360;2022-08-21T07:22:33;93920.22;;;25.04;75.46
6389;BME280;3227;42.654;23.360;2022-08-21T07:25:01;93922.16;;;25.27;74.01
6389;BME280;3227;42.654;23.360;2022-08-21T07:27:28;93918.59;;;25.28;73.79
6389;BME280;3227;42.654;23.360;2022-08-21T07:29:56;93845.00;;;25.04;73.65
6389;BME280;3227;42.654;23.360;2022-08-21T07:32:24;93892.59;;;25.63;72.85
6389;BME280;3227;42.654;23.360;2022-08-21T07:34:51;93905.69;;;26.13;71.80
6389;BME280;3227;42.654;23.360;2022-08-21T07:37:18;93909.22;;;26.38;69.14
6389;BME280;3227;42.654;23.360;2022-08-21T07:39:47;93902.09;;;26.40;68.42
6389;BME280;3227;42.654;23.360;2022-08-21T07:42:14;93882.50;;;26.44;68.25
6389;BME280;3227;42.654;23.360;2022-08-21T07:44:41;93901.44;;;26.49;66.44
6389;BME280;3227;42.654;23.360;2022-08-21T07:47:08;93897.56;;;26.42;66.21
6389;BME280;3227;42.654;23.360;2022-08-21T07:49:35;93901.16;;;26.65;66.70
6389;BME280;3227;42.654;23.360;2022-08-21T07:52:02;93894.91;;;27.02;65.20
6389;BME280;3227;42.654;23.360;2022-08-21T07:54:29;93880.81;;;27.03;63.91
6389;BME280;3227;42.654;23.360;2022-08-21T07:56:57;93909.13;;;27.23;62.49
6389;BME280;3227;42.654;23.360;2022-08-21T07:59:24;93895.16;;;27.34;62.85
6389;BME280;3227;42.654;23.360;2022-08-21T08:01:50;93880.66;;;27.28;62.08
6389;BME280;3227;42.654;23.360;2022-08-21T08:04:17;93904.91;;;27.21;59.57
6389;BME280;3227;42.654;23.360;2022-08-21T08:06:44;93896.13;;;26.62;61.83
6389;BME280;3227;42.654;23.360;2022-08-21T08:09:11;93901.09;;;26.53;64.50
6389;BME280;3227;42.654;23.360;2022-08-21T08:11:41;93893.09;;;26.55;64.83
6389;BME280;3227;42.654;23.360;2022-08-21T08:14:10;93905.34;;;26.43;64.50
6389;BME280;3227;42.654;23.360;2022-08-21T08:16:37;93903.38;;;26.34;64.68
6389;BME280;3227;42.654;23.360;2022-08-21T08:19:05;93888.03;;;26.28;65.05
6389;BME280;3227;42.654;23.360;2022-08-21T08:21:32;93893.72;;;26.09;65.12
6389;BME280;3227;42.654;23.360;2022-08-21T08:23:59;93906.78;;;25.73;67.78
6389;BME280;3227;42.654;23.360;2022-08-21T08:26:26;93903.75;;;25.66;68.33
6389;BME280;3227;42.654;23.360;2022-08-21T08:28:53;93901.72;;;25.57;69.75
6389;BME280;3227;42.654;23.360;2022-08-21T08:31:21;93900.69;;;25.72;70.29
6389;BME280;3227;42.654;23.360;2022-08-21T08:33:49;93902.16;;;25.76;67.61
6389;BME280;3227;42.654;23.360;2022-08-21T08:36:16;93902.84;;;25.53;66.95
6389;BME280;3227;42.654;23.360;2022-08-21T08:38:44;93908.00;;;25.42;67.83
6389;BME280;3227;42.654;23.360;2022-08-21T08:41:13;93908.41;;;25.36;68.63
6389;BME280;3227;42.654;23.360;2022-08-21T08:43:44;93913.66;;;25.36;69.33
6389;BME280;3227;42.654;23.360;2022-08-21T08:46:14;93903.06;;;25.50;69.14
6389;BME280;3227;42.654;23.360;2022-08-21T08:48:49;93908.25;;;25.64;69.32
6389;BME280;3227;42.654;23.360;2022-08-21T08:51:22;93903.31;;;25.85;69.49
6389;BME280;3227;42.654;23.360;2022-08-21T08:53:52;93891.34;;;25.94;68.28
6389;BME280;3227;42.654;23.360;2022-08-21T08:56:28;93891.84;;;25.99;68.19
6389;BME280;3227;42.654;23.360;2022-08-21T08:59:00;93889.03;;;26.02;66.84
6389;BME280;3227;42.654;23.360;2022-08-21T09:01:28;93892.28;;;25.93;67.58
6389;BME280;3227;42.654;23.360;2022-08-21T09:03:56;93878.97;;;25.83;66.94
6389;BME280;3227;42.654;23.360;2022-08-21T09:06:45;93884.47;;;26.04;66.95
6389;BME280;3227;42.654;23.360;2022-08-21T09:09:24;93886.75;;;26.21;66.34
6389;BME280;3227;42.654;23.360;2022-08-21T09:11:59;93884.34;;;26.43;65.41
6389;BME280;3227;42.654;23.360;2022-08-21T09:14:37;93885.28;;;26.66;64.07
6389;BME280;3227;42.654;23.360;2022-08-21T09:17:16;93871.88;;;26.82;62.47
6389;BME280;3227;42.654;23.360;2022-08-21T09:19:58;93831.06;;;26.65;62.28
6389;BME280;3227;42.654;23.360;2022-08-21T09:22:33;93871.88;;;27.06;61.64
6389;BME280;3227;42.654;23.360;2022-08-21T09:25:08;93872.97;;;27.14;61.10
6389;BME280;3227;42.654;23.360;2022-08-21T09:27:38;93877.72;;;26.98;60.92
6389;BME280;3227;42.654;23.360;2022-08-21T09:30:07;93861.19;;;26.72;60.20
6389;BME280;3227;42.654;23.360;2022-08-21T09:32:36;93867.09;;;26.63;61.79
6389;BME280;3227;42.654;23.360;2022-08-21T09:35:08;93861.84;;;26.63;62.34
6389;BME280;3227;42.654;23.360;2022-08-21T09:37:46;93814.78;;;26.36;63.89
6389;BME280;3227;42.654;23.360;2022-08-21T09:40:31;93872.13;;;26.90;63.97
6389;BME280;3227;42.654;23.360;2022-08-21T09:43:02;93864.34;;;27.01;62.36
6389;BME280;3227;42.654;23.360;2022-08-21T09:45:30;93839.31;;;26.72;61.48
6389;BME280;3227;42.654;23.360;2022-08-21T09:48:08;93825.31;;;26.60;61.80
6389;BME280;3227;42.654;23.360;2022-08-21T09:50:37;93860.84;;;26.53;61.34
6389;BME280;3227;42.654;23.360;2022-08-21T09:53:05;93862.06;;;26.36;62.29
6389;BME280;3227;42.654;23.360;2022-08-21T09:55:37;93862.06;;;26.24;62.14
6389;BME280;3227;42.654;23.360;2022-08-21T09:58:30;93863.06;;;25.97;63.47
6389;BME280;3227;42.654;23.360;2022-08-21T10:00:59;93855.53;;;25.80;64.10
6389;BME280;3227;42.654;23.360;2022-08-21T10:03:27;93854.94;;;25.76;64.90
6389;BME280;3227;42.654;23.360;2022-08-21T10:05:59;93852.91;;;25.42;64.61
6389;BME280;3227;42.654;23.360;2022-08-21T10:08:28;93850.09;;;25.20;65.82
6389;BME280;3227;42.654;23.360;2022-08-21T10:11:04;93800.06;;;24.83;67.21
6389;BME280;3227;42.654;23.360;2022-08-21T10:13:43;93847.94;;;25.12;68.69
6389;BME280;3227;42.654;23.360;2022-08-21T10:16:26;93842.72;;;25.25;69.64
6389;BME280;3227;42.654;23.360;2022-08-21T10:19:03;93844.72;;;25.34;67.03
6389;BME280;3227;42.654;23.360;2022-08-21T10:21:39;93824.47;;;25.23;68.16
6389;BME280;3227;42.654;23.360;2022-08-21T10:24:12;93837.50;;;25.50;67.76
6389;BME280;3227;42.654;23.360;2022-08-21T10:26:51;93832.69;;;25.44;65.42
6389;BME280;3227;42.654;23.360;2022-08-21T10:29:37;93828.69;;;25.51;66.29
6389;BME280;3227;42.654;23.360;2022-08-21T10:32:22;93830.56;;;25.62;66.07
6389;BME280;3227;42.654;23.360;2022-08-21T10:34:56;93829.09;;;25.70;66.43
6389;BME280;3227;42.654;23.360;2022-08-21T10:37:34;93829.84;;;25.72;66.74
6389;BME280;3227;42.654;23.360;2022-08-21T10:40:14;93824.81;;;25.69;65.62
6389;BME280;3227;42.654;23.360;2022-08-21T10:42:51;93830.78;;;25.71;66.33
6389;BME280;3227;42.654;23.360;2022-08-21T10:45:38;93800.22;;;25.58;65.36
6389;BME280;3227;42.654;23.360;2022-08-21T10:48:16;93821.88;;;25.74;65.30
6389;BME280;3227;42.654;23.360;2022-08-21T10:50:50;93826.22;;;25.86;64.74
6389;BME280;3227;42.654;23.360;2022-08-21T10:53:41;93814.88;;;25.98;65.00
6389;BME280;3227;42.654;23.360;2022-08-21T10:56:16;93798.31;;;26.22;65.45
6389;BME280;3227;42.654;23.360;2022-08-21T10:58:51;93802.06;;;26.43;64.71
6389;BME280;3227;42.654;23.360;2022-08-21T11:01:27;93801.78;;;26.59;64.61
6389;BME280;3227;42.654;23.360;2022-08-21T11:04:07;93799.16;;;26.70;61.03
6389;BME280;3227;42.654;23.360;2022-08-21T11:06:39;93795.25;;;26.75;60.93
6389;BME280;3227;42.654;23.360;2022-08-21T11:09:13;93790.72;;;26.42;61.41
6389;BME280;3227;42.654;23.360;2022-08-21T11:11:44;93785.19;;;26.34;61.98
6389;BME280;3227;42.654;23.360;2022-08-21T11:14:20;93778.47;;;26.30;61.08
6389;BME280;3227;42.654;23.360;2022-08-21T11:16:53;93778.63;;;26.40;61.14
6389;BME280;3227;42.654;23.360;2022-08-21T11:19:28;93774.53;;;26.36;60.27
6389;BME280;3227;42.654;23.360;2022-08-21T11:22:04;93564.25;;;24.83;61.46
6389;BME280;3227;42.654;23.360;2022-08-21T11:24:42;93781.31;;;25.91;62.50
6389;BME280;3227;42.654;23.360;2022-08-21T11:27:19;93772.16;;;25.96;62.58
6389;BME280;3227;42.654;23.360;2022-08-21T11:29:50;93775.41;;;26.00;62.07
6389;BME280;3227;42.654;23.360;2022-08-21T11:32:39;93773.78;;;26.10;62.11
6389;BME280;3227;42.654;23.360;2022-08-21T11:35:15;93771.03;;;26.11;61.50
6389;BME280;3227;42.654;23.360;2022-08-21T11:38:11;93770.19;;;26.11;60.49
6389;BME280;3227;42.654;23.360;2022-08-21T11:40:54;93764.34;;;26.07;61.43
6389;BME280;3227;42.654;23.360;2022-08-21T11:43:36;93729.97;;;25.87;61.04
6389;BME280;3227;42.654;23.360;2022-08-21T11:46:12;93772.13;;;26.09;61.12
6389;BME280;3227;42.654;23.360;2022-08-21T11:48:47;93777.78;;;26.03;61.07
6389;BME280;3227;42.654;23.360;2022-08-21T11:51:20;93770.44;;;26.08;61.29
6389;BME280;3227;42.654;23.360;2022-08-21T11:53:50;93767.84;;;26.19;62.05
6389;BME280;3227;42.654;23.360;2022-08-21T11:56:27;93725.91;;;25.83;61.52
6389;BME280;3227;42.654;23.360;2022-08-21T11:59:01;93741.66;;;25.83;60.90
6389;BME280;3227;42.654;23.360;2022-08-21T12:01:33;93734.13;;;25.65;61.39
6389;BME280;3227;42.654;23.360;2022-08-21T12:04:04;93738.22;;;25.69;61.21
6389;BME280;3227;42.654;23.360;2022-08-21T12:06:36;93753.81;;;25.84;62.11
6389;BME280;3227;42.654;23.360;2022-08-21T12:09:06;93757.06;;;25.87;61.47
6389;BME280;3227;42.654;23.360;2022-08-21T12:11:46;93742.13;;;25.88;60.66
6389;BME280;3227;42.654;23.360;2022-08-21T12:14:16;93711.81;;;25.60;61.27
6389;BME280;3227;42.654;23.360;2022-08-21T12:16:45;93747.34;;;25.64;60.00
6389;BME280;3227;42.654;23.360;2022-08-21T12:19:14;93753.94;;;25.57;59.79
6389;BME280;3227;42.654;23.360;2022-08-21T12:21:59;93735.94;;;25.52;60.54
6389;BME280;3227;42.654;23.360;2022-08-21T12:24:43;93756.69;;;25.68;60.34
6389;BME280;3227;42.654;23.360;2022-08-21T12:27:20;93760.72;;;25.61;60.24
6389;BME280;3227;42.654;23.360;2022-08-21T12:29:54;93768.69;;;25.59;59.61
6389;BME280;3227;42.654;23.360;2022-08-21T12:32:27;93771.19;;;25.61;60.23
6389;BME280;3227;42.654;23.360;2022-08-21T12:35:00;93756.81;;;25.66;60.23
6389;BME280;3227;42.654;23.360;2022-08-21T12:37:37;93712.03;;;25.44;59.96
6389;BME280;3227;42.654;23.360;2022-08-21T12:40:13;93758.34;;;25.56;59.68
6389;BME280;3227;42.654;23.360;2022-08-21T12:42:48;93755.00;;;25.54;60.60
6389;BME280;3227;42.654;23.360;2022-08-21T12:45:20;93729.66;;;25.42;60.87
6389;BME280;3227;42.654;23.360;2022-08-21T12:48:08;93757.84;;;25.51;61.13
6389;BME280;3227;42.654;23.360;2022-08-21T12:50:41;93758.06;;;25.48;61.59
6389;BME280;3227;42.654;23.360;2022-08-21T12:53:10;93763.50;;;25.45;62.19
6389;BME280;3227;42.654;23.360;2022-08-21T12:55:41;93759.22;;;25.44;61.73
6389;BME280;3227;42.654;23.360;2022-08-21T12:58:18;93748.22;;;25.39;63.33
6389;BME280;3227;42.654;23.360;2022-08-21T13:00:49;93743.28;;;25.34;63.90
6389;BME280;3227;42.654;23.360;2022-08-21T13:03:16;93735.34;;;25.36;64.43
6389;BME280;3227;42.654;23.360;2022-08-21T13:05:44;93728.59;;;25.32;65.56
6389;BME280;3227;42.654;23.360;2022-08-21T13:08:12;93714.88;;;25.16;66.43
6389;BME280;3227;42.654;23.360;2022-08-21T13:10:41;93731.97;;;25.21;67.35
6389;BME280;3227;42.654;23.360;2022-08-21T13:13:11;93737.00;;;25.24;66.91
6389;BME280;3227;42.654;23.360;2022-08-21T13:15:43;93741.81;;;25.30;67.21
6389;BME280;3227;42.654;23.360;2022-08-21T13:18:20;93732.59;;;25.25;66.36
6389;BME280;3227;42.654;23.360;2022-08-21T13:20:48;93729.09;;;25.37;66.52
6389;BME280;3227;42.654;23.360;2022-08-21T13:23:20;93727.22;;;25.39;66.58
6389;BME280;3227;42.654;23.360;2022-08-21T13:25:49;93726.50;;;25.37;67.20